sensor_id;sensor_type;location;lat;lon;timestamp;P1;durP1;ratioP1;P2;durP2;ratioP2
12493;SDS011;8260;51.422;6.786;2023-04-01T00:00:47;4.72;;;2.13;;
12493;SDS011;8260;51.422;6.786;2023-04-01T00:03:16;8.38;;;2.20;;
12493;SDS011;8260;51.422;6.786;2023-04-01T00:05:45;10.73;;;3.17;;
12493;SDS011;8260;51.422;6.786;2023-04-01T00:08:14;4.35;;;2.25;;
12493;SDS011;8260;51.422;6.786;2023-04-01T00:10:44;5.78;;;2.35;;
12493;SDS011;8260;51.422;6.786;2023-04-01T00:13:13;5.10;;;2.28;;
12493;SDS011;8260;51.422;6.786;2023-04-01T00:15:42;9.32;;;4.10;;
12493;SDS011;8260;51.422;6.786;2023-04-01T00:18:11;8.77;;;3.38;;
12493;SDS011;8260;51.422;6.786;2023-04-01T00:20:42;6.22;;;3.55;;
12493;SDS011;8260;51.422;6.786;2023-04-01T00:23:11;7.95;;;3.25;;
12493;SDS011;8260;51.422;6.786;2023-04-01T00:25:40;5.00;;;2.97;;
12493;SDS011;8260;51.422;6.786;2023-04-01T00:28:10;5.78;;;2.13;;
12493;SDS011;8260;51.422;6.786;2023-04-01T00:30:39;6.65;;;3.08;;
12493;SDS011;8260;51.422;6.786;2023-04-01T00:33:07;4.53;;;2.15;;
12493;SDS011;8260;51.422;6.786;2023-04-01T00:35:37;5.18;;;1.90;;
12493;SDS011;8260;51.422;6.786;2023-04-01T00:38:05;2.38;;;1.75;;
12493;SDS011;8260;51.422;6.786;2023-04-01T00:40:35;6.53;;;2.50;;
12493;SDS011;8260;51.422;6.786;2023-04-01T00:43:08;2.72;;;1.65;;
12493;SDS011;8260;51.422;6.786;2023-04-01T00:45:40;2.80;;;1.58;;
12493;SDS011;8260;51.422;6.786;2023-04-01T00:48:10;3.50;;;1.70;;
12493;SDS011;8260;51.422;6.786;2023-04-01T00:50:39;4.60;;;1.60;;
12493;SDS011;8260;51.422;6.786;2023-04-01T00:53:08;3.10;;;1.35;;
12493;SDS011;8260;51.422;6.786;2023-04-01T00:55:39;3.65;;;1.40;;
12493;SDS011;8260;51.422;6.786;2023-04-01T00:58:11;4.05;;;1.33;;
12493;SDS011;8260;51.422;6.786;2023-04-01T01:00:43;2.15;;;1.45;;
12493;SDS011;8260;51.422;6.786;2023-04-01T01:03:13;3.38;;;1.63;;
12493;SDS011;8260;51.422;6.786;2023-04-01T01:08:31;3.47;;;1.90;;
12493;SDS011;8260;51.422;6.786;2023-04-01T01:11:04;4.53;;;2.60;;
12493;SDS011;8260;51.422;6.786;2023-04-01T01:13:34;5.22;;;1.98;;
12493;SDS011;8260;51.422;6.786;2023-04-01T01:16:06;3.03;;;1.70;;
12493;SDS011;8260;51.422;6.786;2023-04-01T01:18:38;4.25;;;1.67;;
12493;SDS011;8260;51.422;6.786;2023-04-01T01:21:24;7.25;;;2.00;;
12493;SDS011;8260;51.422;6.786;2023-04-01T01:24:05;3.45;;;1.60;;
12493;SDS011;8260;51.422;6.786;2023-04-01T01:26:39;3.85;;;2.20;;
12493;SDS011;8260;51.422;6.786;2023-04-01T01:29:13;3.67;;;1.92;;
12493;SDS011;8260;51.422;6.786;2023-04-01T01:31:49;4.40;;;1.83;;
12493;SDS011;8260;51.422;6.786;2023-04-01T01:34:19;4.45;;;1.90;;
12493;SDS011;8260;51.422;6.786;2023-04-01T01:36:52;4.32;;;1.90;;
12493;SDS011;8260;51.422;6.786;2023-04-01T01:39:22;3.63;;;1.80;;
12493;SDS011;8260;51.422;6.786;2023-04-01T01:41:54;1.77;;;1.50;;
12493;SDS011;8260;51.422;6.786;2023-04-01T01:44:24;1.38;;;1.27;;
12493;SDS011;8260;51.422;6.786;2023-04-01T01:46:54;4.20;;;1.48;;
12493;SDS011;8260;51.422;6.786;2023-04-01T01:49:23;2.97;;;1.40;;
12493;SDS011;8260;51.422;6.786;2023-04-01T01:51:53;2.42;;;1.35;;
12493;SDS011;8260;51.422;6.786;2023-04-01T01:54:22;3.90;;;1.63;;
12493;SDS011;8260;51.422;6.786;2023-04-01T01:56:51;2.90;;;1.45;;
12493;SDS011;8260;51.422;6.786;2023-04-01T01:59:21;3.20;;;1.70;;
12493;SDS011;8260;51.422;6.786;2023-04-01T02:01:51;2.60;;;1.23;;
12493;SDS011;8260;51.422;6.786;2023-04-01T02:04:20;3.40;;;1.90;;
12493;SDS011;8260;51.422;6.786;2023-04-01T02:06:51;3.00;;;2.15;;
12493;SDS011;8260;51.422;6.786;2023-04-01T02:09:22;5.18;;;2.42;;
12493;SDS011;8260;51.422;6.786;2023-04-01T02:11:51;3.08;;;2.45;;
12493;SDS011;8260;51.422;6.786;2023-04-01T02:14:21;4.38;;;1.90;;
12493;SDS011;8260;51.422;6.786;2023-04-01T02:16:51;4.18;;;1.88;;
12493;SDS011;8260;51.422;6.786;2023-04-01T02:19:21;5.60;;;2.17;;
12493;SDS011;8260;51.422;6.786;2023-04-01T02:21:51;4.55;;;3.35;;
12493;SDS011;8260;51.422;6.786;2023-04-01T02:24:22;6.32;;;3.42;;
12493;SDS011;8260;51.422;6.786;2023-04-01T02:26:53;8.45;;;4.55;;
12493;SDS011;8260;51.422;6.786;2023-04-01T02:29:22;5.63;;;2.83;;
12493;SDS011;8260;51.422;6.786;2023-04-01T02:31:52;6.97;;;3.28;;
12493;SDS011;8260;51.422;6.786;2023-04-01T02:34:21;6.65;;;3.65;;
12493;SDS011;8260;51.422;6.786;2023-04-01T02:36:51;6.25;;;3.70;;
12493;SDS011;8260;51.422;6.786;2023-04-01T02:39:21;12.55;;;6.20;;
12493;SDS011;8260;51.422;6.786;2023-04-01T02:41:51;9.25;;;4.05;;
12493;SDS011;8260;51.422;6.786;2023-04-01T02:44:19;6.15;;;3.60;;
12493;SDS011;8260;51.422;6.786;2023-04-01T02:46:48;3.05;;;2.30;;
12493;SDS011;8260;51.422;6.786;2023-04-01T02:49:17;1.90;;;1.80;;
12493;SDS011;8260;51.422;6.786;2023-04-01T02:51:45;2.65;;;1.67;;
12493;SDS011;8260;51.422;6.786;2023-04-01T02:54:14;4.88;;;1.80;;
12493;SDS011;8260;51.422;6.786;2023-04-01T02:56:43;2.65;;;1.85;;
12493;SDS011;8260;51.422;6.786;2023-04-01T02:59:13;4.63;;;2.47;;
12493;SDS011;8260;51.422;6.786;2023-04-01T03:01:41;5.07;;;2.80;;
12493;SDS011;8260;51.422;6.786;2023-04-01T03:04:10;6.72;;;3.08;;
12493;SDS011;8260;51.422;6.786;2023-04-01T03:06:39;3.72;;;2.53;;
12493;SDS011;8260;51.422;6.786;2023-04-01T03:09:07;3.38;;;2.53;;
12493;SDS011;8260;51.422;6.786;2023-04-01T03:11:36;2.28;;;2.05;;
12493;SDS011;8260;51.422;6.786;2023-04-01T03:14:06;3.45;;;2.03;;
12493;SDS011;8260;51.422;6.786;2023-04-01T03:16:36;6.32;;;2.40;;
12493;SDS011;8260;51.422;6.786;2023-04-01T03:19:05;3.10;;;1.88;;
12493;SDS011;8260;51.422;6.786;2023-04-01T03:21:33;3.13;;;2.45;;
12493;SDS011;8260;51.422;6.786;2023-04-01T03:24:02;6.88;;;3.05;;
12493;SDS011;8260;51.422;6.786;2023-04-01T03:26:31;3.88;;;2.38;;
12493;SDS011;8260;51.422;6.786;2023-04-01T03:28:59;5.88;;;4.28;;
12493;SDS011;8260;51.422;6.786;2023-04-01T03:31:28;7.45;;;5.25;;
12493;SDS011;8260;51.422;6.786;2023-04-01T03:33:58;6.80;;;4.68;;
12493;SDS011;8260;51.422;6.786;2023-04-01T03:36:27;9.57;;;7.50;;
12493;SDS011;8260;51.422;6.786;2023-04-01T03:38:56;10.88;;;7.22;;
12493;SDS011;8260;51.422;6.786;2023-04-01T03:41:25;8.82;;;6.72;;
12493;SDS011;8260;51.422;6.786;2023-04-01T03:43:54;10.23;;;6.43;;
12493;SDS011;8260;51.422;6.786;2023-04-01T03:46:22;9.23;;;8.13;;
12493;SDS011;8260;51.422;6.786;2023-04-01T03:48:51;9.43;;;7.75;;
12493;SDS011;8260;51.422;6.786;2023-04-01T03:51:21;11.18;;;7.03;;
12493;SDS011;8260;51.422;6.786;2023-04-01T03:53:49;8.38;;;6.78;;
12493;SDS011;8260;51.422;6.786;2023-04-01T03:56:18;10.07;;;7.70;;
12493;SDS011;8260;51.422;6.786;2023-04-01T03:58:46;10.77;;;7.88;;
12493;SDS011;8260;51.422;6.786;2023-04-01T04:01:16;10.55;;;7.00;;
12493;SDS011;8260;51.422;6.786;2023-04-01T04:03:45;7.15;;;6.28;;
12493;SDS011;8260;51.422;6.786;2023-04-01T04:06:16;9.35;;;6.80;;
12493;SDS011;8260;51.422;6.786;2023-04-01T04:08:46;11.85;;;7.00;;
12493;SDS011;8260;51.422;6.786;2023-04-01T04:11:15;8.10;;;6.32;;
12493;SDS011;8260;51.422;6.786;2023-04-01T04:13:44;13.30;;;7.50;;
12493;SDS011;8260;51.422;6.786;2023-04-01T04:16:14;12.15;;;8.60;;
12493;SDS011;8260;51.422;6.786;2023-04-01T04:18:43;11.15;;;7.32;;
12493;SDS011;8260;51.422;6.786;2023-04-01T04:21:12;9.45;;;7.20;;
12493;SDS011;8260;51.422;6.786;2023-04-01T04:23:41;7.57;;;5.78;;
12493;SDS011;8260;51.422;6.786;2023-04-01T04:26:12;6.60;;;5.30;;
12493;SDS011;8260;51.422;6.786;2023-04-01T04:28:41;6.32;;;5.20;;
12493;SDS011;8260;51.422;6.786;2023-04-01T04:31:09;6.75;;;4.30;;
12493;SDS011;8260;51.422;6.786;2023-04-01T04:33:38;5.35;;;4.25;;
12493;SDS011;8260;51.422;6.786;2023-04-01T04:36:07;6.65;;;4.38;;
12493;SDS011;8260;51.422;6.786;2023-04-01T04:38:36;7.25;;;4.07;;
12493;SDS011;8260;51.422;6.786;2023-04-01T04:41:08;6.18;;;4.50;;
12493;SDS011;8260;51.422;6.786;2023-04-01T04:43:39;6.90;;;4.32;;
12493;SDS011;8260;51.422;6.786;2023-04-01T04:46:08;5.65;;;4.53;;
12493;SDS011;8260;51.422;6.786;2023-04-01T04:48:37;5.18;;;4.13;;
12493;SDS011;8260;51.422;6.786;2023-04-01T04:51:06;4.10;;;3.67;;
12493;SDS011;8260;51.422;6.786;2023-04-01T04:53:35;5.20;;;3.25;;
12493;SDS011;8260;51.422;6.786;2023-04-01T04:56:04;3.72;;;3.15;;
12493;SDS011;8260;51.422;6.786;2023-04-01T04:58:32;4.80;;;3.58;;
12493;SDS011;8260;51.422;6.786;2023-04-01T05:01:06;5.45;;;4.18;;
12493;SDS011;8260;51.422;6.786;2023-04-01T05:03:35;4.75;;;3.80;;
12493;SDS011;8260;51.422;6.786;2023-04-01T05:06:04;5.78;;;4.70;;
12493;SDS011;8260;51.422;6.786;2023-04-01T05:08:33;7.15;;;5.50;;
12493;SDS011;8260;51.422;6.786;2023-04-01T05:11:02;9.80;;;7.13;;
12493;SDS011;8260;51.422;6.786;2023-04-01T05:13:31;9.65;;;7.65;;
12493;SDS011;8260;51.422;6.786;2023-04-01T05:15:59;9.10;;;7.18;;
12493;SDS011;8260;51.422;6.786;2023-04-01T05:18:29;11.73;;;8.32;;
12493;SDS011;8260;51.422;6.786;2023-04-01T05:20:58;9.52;;;7.50;;
12493;SDS011;8260;51.422;6.786;2023-04-01T05:23:26;9.18;;;7.47;;
12493;SDS011;8260;51.422;6.786;2023-04-01T05:25:56;9.38;;;7.82;;
12493;SDS011;8260;51.422;6.786;2023-04-01T05:28:24;7.65;;;6.65;;
12493;SDS011;8260;51.422;6.786;2023-04-01T05:30:53;7.55;;;6.75;;
12493;SDS011;8260;51.422;6.786;2023-04-01T05:33:22;6.60;;;6.00;;
12493;SDS011;8260;51.422;6.786;2023-04-01T05:35:52;7.25;;;6.25;;
12493;SDS011;8260;51.422;6.786;2023-04-01T05:38:21;10.93;;;6.63;;
12493;SDS011;8260;51.422;6.786;2023-04-01T05:40:49;8.40;;;6.53;;
12493;SDS011;8260;51.422;6.786;2023-04-01T05:43:18;8.02;;;6.50;;
12493;SDS011;8260;51.422;6.786;2023-04-01T05:45:48;7.45;;;6.13;;
12493;SDS011;8260;51.422;6.786;2023-04-01T05:48:16;8.93;;;6.50;;
12493;SDS011;8260;51.422;6.786;2023-04-01T05:50:45;8.18;;;6.78;;
12493;SDS011;8260;51.422;6.786;2023-04-01T05:53:15;6.15;;;5.03;;
12493;SDS011;8260;51.422;6.786;2023-04-01T05:55:44;7.70;;;5.45;;
12493;SDS011;8260;51.422;6.786;2023-04-01T05:58:12;5.70;;;4.88;;
12493;SDS011;8260;51.422;6.786;2023-04-01T06:00:41;6.63;;;5.00;;
12493;SDS011;8260;51.422;6.786;2023-04-01T06:03:10;6.50;;;5.57;;
12493;SDS011;8260;51.422;6.786;2023-04-01T06:05:39;8.55;;;5.38;;
12493;SDS011;8260;51.422;6.786;2023-04-01T06:08:12;7.95;;;5.53;;
12493;SDS011;8260;51.422;6.786;2023-04-01T06:10:50;7.15;;;5.15;;
12493;SDS011;8260;51.422;6.786;2023-04-01T06:13:23;5.80;;;4.95;;
12493;SDS011;8260;51.422;6.786;2023-04-01T06:15:56;6.30;;;5.00;;
12493;SDS011;8260;51.422;6.786;2023-04-01T06:21:13;6.10;;;4.80;;
12493;SDS011;8260;51.422;6.786;2023-04-01T06:23:48;5.53;;;4.75;;
12493;SDS011;8260;51.422;6.786;2023-04-01T06:26:25;5.78;;;5.13;;
12493;SDS011;8260;51.422;6.786;2023-04-01T06:32:01;8.05;;;5.13;;
12493;SDS011;8260;51.422;6.786;2023-04-01T06:34:42;5.22;;;4.72;;
12493;SDS011;8260;51.422;6.786;2023-04-01T06:37:22;6.38;;;5.78;;
12493;SDS011;8260;51.422;6.786;2023-04-01T06:40:05;5.40;;;4.70;;
12493;SDS011;8260;51.422;6.786;2023-04-01T06:42:39;6.57;;;5.57;;
12493;SDS011;8260;51.422;6.786;2023-04-01T06:45:15;6.00;;;5.40;;
12493;SDS011;8260;51.422;6.786;2023-04-01T06:47:54;5.47;;;4.65;;
12493;SDS011;8260;51.422;6.786;2023-04-01T06:50:26;6.65;;;5.18;;
12493;SDS011;8260;51.422;6.786;2023-04-01T06:53:00;6.22;;;5.63;;
12493;SDS011;8260;51.422;6.786;2023-04-01T06:55:34;6.22;;;5.63;;
12493;SDS011;8260;51.422;6.786;2023-04-01T06:58:09;7.72;;;6.80;;
12493;SDS011;8260;51.422;6.786;2023-04-01T07:00:40;6.60;;;5.82;;
12493;SDS011;8260;51.422;6.786;2023-04-01T07:03:12;10.25;;;7.30;;
12493;SDS011;8260;51.422;6.786;2023-04-01T07:05:43;10.25;;;7.15;;
12493;SDS011;8260;51.422;6.786;2023-04-01T07:08:13;10.27;;;7.85;;
12493;SDS011;8260;51.422;6.786;2023-04-01T07:10:45;9.35;;;7.30;;
12493;SDS011;8260;51.422;6.786;2023-04-01T07:13:18;10.20;;;7.90;;
12493;SDS011;8260;51.422;6.786;2023-04-01T07:15:51;11.80;;;9.45;;
12493;SDS011;8260;51.422;6.786;2023-04-01T07:18:25;10.27;;;8.57;;
12493;SDS011;8260;51.422;6.786;2023-04-01T07:20:56;12.82;;;8.77;;
12493;SDS011;8260;51.422;6.786;2023-04-01T07:23:27;11.02;;;8.45;;
12493;SDS011;8260;51.422;6.786;2023-04-01T07:25:58;11.82;;;7.65;;
12493;SDS011;8260;51.422;6.786;2023-04-01T07:28:30;7.18;;;6.47;;
12493;SDS011;8260;51.422;6.786;2023-04-01T07:31:03;7.60;;;6.32;;
12493;SDS011;8260;51.422;6.786;2023-04-01T07:33:36;8.13;;;6.60;;
12493;SDS011;8260;51.422;6.786;2023-04-01T07:36:08;7.53;;;6.35;;
12493;SDS011;8260;51.422;6.786;2023-04-01T07:38:44;7.60;;;6.50;;
12493;SDS011;8260;51.422;6.786;2023-04-01T07:41:16;7.80;;;5.75;;
12493;SDS011;8260;51.422;6.786;2023-04-01T07:43:52;7.72;;;6.72;;
12493;SDS011;8260;51.422;6.786;2023-04-01T07:46:28;7.00;;;6.18;;
12493;SDS011;8260;51.422;6.786;2023-04-01T07:49:01;5.75;;;5.22;;
12493;SDS011;8260;51.422;6.786;2023-04-01T07:51:31;7.70;;;5.97;;
12493;SDS011;8260;51.422;6.786;2023-04-01T07:54:04;7.00;;;6.28;;
12493;SDS011;8260;51.422;6.786;2023-04-01T07:56:36;6.90;;;5.85;;
12493;SDS011;8260;51.422;6.786;2023-04-01T07:59:09;6.05;;;5.35;;
12493;SDS011;8260;51.422;6.786;2023-04-01T08:01:40;8.18;;;6.68;;
12493;SDS011;8260;51.422;6.786;2023-04-01T08:04:18;7.30;;;6.05;;
12493;SDS011;8260;51.422;6.786;2023-04-01T08:06:52;8.20;;;6.57;;
12493;SDS011;8260;51.422;6.786;2023-04-01T08:09:24;7.40;;;6.70;;
12493;SDS011;8260;51.422;6.786;2023-04-01T08:12:01;8.02;;;6.88;;
12493;SDS011;8260;51.422;6.786;2023-04-01T08:14:35;9.02;;;7.40;;
12493;SDS011;8260;51.422;6.786;2023-04-01T08:17:07;8.52;;;7.38;;
12493;SDS011;8260;51.422;6.786;2023-04-01T08:19:43;10.18;;;7.20;;
12493;SDS011;8260;51.422;6.786;2023-04-01T08:22:19;7.72;;;6.93;;
12493;SDS011;8260;51.422;6.786;2023-04-01T08:24:49;8.80;;;6.03;;
12493;SDS011;8260;51.422;6.786;2023-04-01T08:27:21;7.63;;;6.50;;
12493;SDS011;8260;51.422;6.786;2023-04-01T08:29:54;7.20;;;6.45;;
12493;SDS011;8260;51.422;6.786;2023-04-01T08:32:25;7.28;;;6.30;;
12493;SDS011;8260;51.422;6.786;2023-04-01T08:35:02;7.35;;;6.43;;
12493;SDS011;8260;51.422;6.786;2023-04-01T08:37:36;7.75;;;6.25;;
12493;SDS011;8260;51.422;6.786;2023-04-01T08:40:15;7.38;;;5.80;;
12493;SDS011;8260;51.422;6.786;2023-04-01T08:42:52;7.93;;;6.40;;
12493;SDS011;8260;51.422;6.786;2023-04-01T08:45:29;6.38;;;5.47;;
12493;SDS011;8260;51.422;6.786;2023-04-01T08:48:08;7.15;;;6.07;;
12493;SDS011;8260;51.422;6.786;2023-04-01T08:50:51;7.53;;;6.03;;
12493;SDS011;8260;51.422;6.786;2023-04-01T08:53:24;7.47;;;6.00;;
12493;SDS011;8260;51.422;6.786;2023-04-01T08:56:00;7.07;;;6.15;;
12493;SDS011;8260;51.422;6.786;2023-04-01T08:58:52;8.20;;;6.85;;
12493;SDS011;8260;51.422;6.786;2023-04-01T09:01:31;8.10;;;6.28;;
12493;SDS011;8260;51.422;6.786;2023-04-01T09:04:05;8.52;;;7.70;;
12493;SDS011;8260;51.422;6.786;2023-04-01T09:06:40;8.70;;;6.93;;
12493;SDS011;8260;51.422;6.786;2023-04-01T09:09:21;11.38;;;7.57;;
12493;SDS011;8260;51.422;6.786;2023-04-01T09:14:43;8.88;;;7.43;;
12493;SDS011;8260;51.422;6.786;2023-04-01T09:20:08;10.98;;;8.45;;
12493;SDS011;8260;51.422;6.786;2023-04-01T09:22:50;11.30;;;8.27;;
12493;SDS011;8260;51.422;6.786;2023-04-01T09:25:22;10.65;;;8.77;;
12493;SDS011;8260;51.422;6.786;2023-04-01T09:27:56;10.73;;;8.40;;
12493;SDS011;8260;51.422;6.786;2023-04-01T09:33:28;11.55;;;9.32;;
12493;SDS011;8260;51.422;6.786;2023-04-01T09:36:04;10.50;;;8.90;;
12493;SDS011;8260;51.422;6.786;2023-04-01T09:38:38;11.93;;;9.20;;
12493;SDS011;8260;51.422;6.786;2023-04-01T09:41:14;12.85;;;9.63;;
12493;SDS011;8260;51.422;6.786;2023-04-01T09:43:55;11.18;;;9.30;;
12493;SDS011;8260;51.422;6.786;2023-04-01T09:46:26;11.00;;;8.90;;
12493;SDS011;8260;51.422;6.786;2023-04-01T09:51:48;13.35;;;10.75;;
12493;SDS011;8260;51.422;6.786;2023-04-01T09:54:24;11.60;;;9.73;;
12493;SDS011;8260;51.422;6.786;2023-04-01T09:59:49;14.52;;;11.00;;
12493;SDS011;8260;51.422;6.786;2023-04-01T10:13:51;15.57;;;12.32;;
12493;SDS011;8260;51.422;6.786;2023-04-01T10:16:40;16.33;;;12.30;;
12493;SDS011;8260;51.422;6.786;2023-04-01T10:22:16;15.25;;;12.35;;
12493;SDS011;8260;51.422;6.786;2023-04-01T10:25:01;14.25;;;11.85;;
12493;SDS011;8260;51.422;6.786;2023-04-01T10:44:39;15.35;;;11.32;;
12493;SDS011;8260;51.422;6.786;2023-04-01T10:50:11;15.20;;;11.10;;
12493;SDS011;8260;51.422;6.786;2023-04-01T10:55:35;16.75;;;12.82;;
12493;SDS011;8260;51.422;6.786;2023-04-01T10:58:10;17.13;;;12.88;;
12493;SDS011;8260;51.422;6.786;2023-04-01T11:00:55;18.50;;;12.98;;
12493;SDS011;8260;51.422;6.786;2023-04-01T11:03:46;20.20;;;13.40;;
12493;SDS011;8260;51.422;6.786;2023-04-01T11:12:03;19.90;;;14.25;;
12493;SDS011;8260;51.422;6.786;2023-04-01T11:14:52;21.55;;;14.23;;
12493;SDS011;8260;51.422;6.786;2023-04-01T11:23:26;19.98;;;14.50;;
12493;SDS011;8260;51.422;6.786;2023-04-01T11:25:59;20.08;;;15.07;;
12493;SDS011;8260;51.422;6.786;2023-04-01T11:28:40;16.63;;;13.95;;
12493;SDS011;8260;51.422;6.786;2023-04-01T11:31:19;19.90;;;14.38;;
12493;SDS011;8260;51.422;6.786;2023-04-01T11:33:53;21.20;;;14.80;;
12493;SDS011;8260;51.422;6.786;2023-04-01T11:36:25;20.33;;;15.38;;
12493;SDS011;8260;51.422;6.786;2023-04-01T11:39:03;24.60;;;15.77;;
12493;SDS011;8260;51.422;6.786;2023-04-01T11:41:34;18.52;;;14.63;;
12493;SDS011;8260;51.422;6.786;2023-04-01T11:47:00;20.92;;;15.27;;
12493;SDS011;8260;51.422;6.786;2023-04-01T11:49:36;20.73;;;15.40;;
12493;SDS011;8260;51.422;6.786;2023-04-01T11:52:15;21.02;;;15.30;;
12493;SDS011;8260;51.422;6.786;2023-04-01T11:54:56;22.10;;;15.15;;
12493;SDS011;8260;51.422;6.786;2023-04-01T11:57:42;18.05;;;13.48;;
12493;SDS011;8260;51.422;6.786;2023-04-01T12:00:17;21.17;;;15.05;;
12493;SDS011;8260;51.422;6.786;2023-04-01T12:02:51;19.00;;;14.73;;
12493;SDS011;8260;51.422;6.786;2023-04-01T12:05:33;17.60;;;13.45;;
12493;SDS011;8260;51.422;6.786;2023-04-01T12:08:09;16.33;;;12.73;;
12493;SDS011;8260;51.422;6.786;2023-04-01T12:10:41;13.90;;;11.98;;
12493;SDS011;8260;51.422;6.786;2023-04-01T12:13:23;13.85;;;11.38;;
12493;SDS011;8260;51.422;6.786;2023-04-01T12:18:45;14.40;;;10.98;;
12493;SDS011;8260;51.422;6.786;2023-04-01T12:21:20;13.93;;;10.73;;
12493;SDS011;8260;51.422;6.786;2023-04-01T12:23:57;11.85;;;10.50;;
12493;SDS011;8260;51.422;6.786;2023-04-01T12:26:35;11.95;;;10.10;;
12493;SDS011;8260;51.422;6.786;2023-04-01T12:29:14;12.18;;;9.88;;
12493;SDS011;8260;51.422;6.786;2023-04-01T12:31:49;15.00;;;11.23;;
12493;SDS011;8260;51.422;6.786;2023-04-01T12:34:25;14.00;;;10.35;;
12493;SDS011;8260;51.422;6.786;2023-04-01T12:37:02;13.20;;;10.50;;
12493;SDS011;8260;51.422;6.786;2023-04-01T12:39:37;12.23;;;9.77;;
12493;SDS011;8260;51.422;6.786;2023-04-01T12:42:14;14.63;;;10.45;;
12493;SDS011;8260;51.422;6.786;2023-04-01T12:44:51;12.45;;;10.23;;
12493;SDS011;8260;51.422;6.786;2023-04-01T12:47:30;12.32;;;9.65;;
12493;SDS011;8260;51.422;6.786;2023-04-01T12:50:12;12.70;;;10.13;;
12493;SDS011;8260;51.422;6.786;2023-04-01T12:52:45;12.80;;;9.75;;
12493;SDS011;8260;51.422;6.786;2023-04-01T12:55:29;12.90;;;11.20;;
12493;SDS011;8260;51.422;6.786;2023-04-01T13:01:09;11.70;;;9.63;;
12493;SDS011;8260;51.422;6.786;2023-04-01T13:06:29;13.63;;;9.88;;
12493;SDS011;8260;51.422;6.786;2023-04-01T13:09:03;13.95;;;9.90;;
12493;SDS011;8260;51.422;6.786;2023-04-01T13:11:37;12.18;;;9.13;;
12493;SDS011;8260;51.422;6.786;2023-04-01T13:17:00;12.50;;;9.40;;
12493;SDS011;8260;51.422;6.786;2023-04-01T13:19:35;12.48;;;8.70;;
12493;SDS011;8260;51.422;6.786;2023-04-01T13:22:17;13.20;;;9.52;;
12493;SDS011;8260;51.422;6.786;2023-04-01T13:24:49;12.38;;;10.35;;
12493;SDS011;8260;51.422;6.786;2023-04-01T13:27:21;12.50;;;9.95;;
12493;SDS011;8260;51.422;6.786;2023-04-01T13:29:59;14.25;;;9.55;;
12493;SDS011;8260;51.422;6.786;2023-04-01T13:32:32;12.73;;;10.50;;
12493;SDS011;8260;51.422;6.786;2023-04-01T13:35:18;13.05;;;10.15;;
12493;SDS011;8260;51.422;6.786;2023-04-01T13:37:52;13.73;;;9.18;;
12493;SDS011;8260;51.422;6.786;2023-04-01T13:40:25;12.95;;;9.35;;
12493;SDS011;8260;51.422;6.786;2023-04-01T13:42:56;16.15;;;10.70;;
12493;SDS011;8260;51.422;6.786;2023-04-01T13:45:26;13.32;;;10.13;;
12493;SDS011;8260;51.422;6.786;2023-04-01T13:50:52;13.40;;;10.27;;
12493;SDS011;8260;51.422;6.786;2023-04-01T13:56:16;13.40;;;10.48;;
12493;SDS011;8260;51.422;6.786;2023-04-01T13:59:03;13.77;;;11.07;;
12493;SDS011;8260;51.422;6.786;2023-04-01T14:01:39;18.17;;;10.40;;
12493;SDS011;8260;51.422;6.786;2023-04-01T14:04:14;13.88;;;10.05;;
12493;SDS011;8260;51.422;6.786;2023-04-01T14:06:54;13.55;;;10.55;;
12493;SDS011;8260;51.422;6.786;2023-04-01T14:09:45;12.45;;;10.30;;
12493;SDS011;8260;51.422;6.786;2023-04-01T14:12:21;13.02;;;9.52;;
12493;SDS011;8260;51.422;6.786;2023-04-01T14:14:58;16.85;;;10.82;;
12493;SDS011;8260;51.422;6.786;2023-04-01T14:17:40;12.77;;;9.60;;
12493;SDS011;8260;51.422;6.786;2023-04-01T14:23:16;11.82;;;9.13;;
12493;SDS011;8260;51.422;6.786;2023-04-01T14:25:59;12.77;;;9.70;;
12493;SDS011;8260;51.422;6.786;2023-04-01T14:28:31;14.52;;;9.80;;
12493;SDS011;8260;51.422;6.786;2023-04-01T14:31:23;17.55;;;10.82;;
12493;SDS011;8260;51.422;6.786;2023-04-01T14:33:59;11.88;;;8.93;;
12493;SDS011;8260;51.422;6.786;2023-04-01T14:36:36;12.52;;;9.80;;
12493;SDS011;8260;51.422;6.786;2023-04-01T14:39:10;15.95;;;8.95;;
12493;SDS011;8260;51.422;6.786;2023-04-01T14:41:46;12.80;;;9.05;;
12493;SDS011;8260;51.422;6.786;2023-04-01T14:44:24;11.10;;;9.15;;
12493;SDS011;8260;51.422;6.786;2023-04-01T14:47:14;10.85;;;8.95;;
12493;SDS011;8260;51.422;6.786;2023-04-01T14:49:44;15.82;;;9.18;;
12493;SDS011;8260;51.422;6.786;2023-04-01T14:52:15;13.05;;;8.43;;
12493;SDS011;8260;51.422;6.786;2023-04-01T14:54:46;11.82;;;9.32;;
12493;SDS011;8260;51.422;6.786;2023-04-01T14:57:20;10.32;;;8.23;;
12493;SDS011;8260;51.422;6.786;2023-04-01T14:59:52;11.45;;;8.50;;
12493;SDS011;8260;51.422;6.786;2023-04-01T15:02:32;11.68;;;8.90;;
12493;SDS011;8260;51.422;6.786;2023-04-01T15:05:04;11.30;;;8.80;;
12493;SDS011;8260;51.422;6.786;2023-04-01T15:10:36;9.30;;;8.07;;
12493;SDS011;8260;51.422;6.786;2023-04-01T15:13:12;8.38;;;6.85;;
12493;SDS011;8260;51.422;6.786;2023-04-01T15:15:51;11.35;;;7.97;;
12493;SDS011;8260;51.422;6.786;2023-04-01T15:18:22;9.90;;;7.55;;
12493;SDS011;8260;51.422;6.786;2023-04-01T15:23:45;9.32;;;7.72;;
12493;SDS011;8260;51.422;6.786;2023-04-01T15:26:24;10.63;;;8.27;;
12493;SDS011;8260;51.422;6.786;2023-04-01T15:29:02;9.60;;;7.35;;
12493;SDS011;8260;51.422;6.786;2023-04-01T15:31:34;9.40;;;7.40;;
12493;SDS011;8260;51.422;6.786;2023-04-01T15:34:09;9.82;;;6.22;;
12493;SDS011;8260;51.422;6.786;2023-04-01T15:36:44;7.32;;;6.50;;
12493;SDS011;8260;51.422;6.786;2023-04-01T15:39:14;7.10;;;6.25;;
12493;SDS011;8260;51.422;6.786;2023-04-01T15:41:56;8.13;;;5.80;;
12493;SDS011;8260;51.422;6.786;2023-04-01T15:44:33;6.40;;;5.65;;
12493;SDS011;8260;51.422;6.786;2023-04-01T15:47:06;7.60;;;5.78;;
12493;SDS011;8260;51.422;6.786;2023-04-01T15:49:39;8.80;;;5.57;;
12493;SDS011;8260;51.422;6.786;2023-04-01T15:52:13;6.43;;;5.82;;
12493;SDS011;8260;51.422;6.786;2023-04-01T15:54:49;8.65;;;6.78;;
12493;SDS011;8260;51.422;6.786;2023-04-01T15:57:27;7.93;;;7.13;;
12493;SDS011;8260;51.422;6.786;2023-04-01T16:00:10;7.45;;;6.63;;
12493;SDS011;8260;51.422;6.786;2023-04-01T16:02:43;7.93;;;6.55;;
12493;SDS011;8260;51.422;6.786;2023-04-01T16:05:21;7.68;;;6.57;;
12493;SDS011;8260;51.422;6.786;2023-04-01T16:07:59;8.32;;;7.13;;
12493;SDS011;8260;51.422;6.786;2023-04-01T16:10:32;7.00;;;6.30;;
12493;SDS011;8260;51.422;6.786;2023-04-01T16:13:09;7.45;;;6.25;;
12493;SDS011;8260;51.422;6.786;2023-04-01T16:15:43;7.43;;;6.05;;
12493;SDS011;8260;51.422;6.786;2023-04-01T16:18:30;8.32;;;6.68;;
12493;SDS011;8260;51.422;6.786;2023-04-01T16:21:01;7.03;;;6.07;;
12493;SDS011;8260;51.422;6.786;2023-04-01T16:23:34;8.13;;;6.47;;
12493;SDS011;8260;51.422;6.786;2023-04-01T16:26:06;7.00;;;6.30;;
12493;SDS011;8260;51.422;6.786;2023-04-01T16:28:38;6.88;;;6.05;;
12493;SDS011;8260;51.422;6.786;2023-04-01T16:31:12;6.65;;;5.95;;
12493;SDS011;8260;51.422;6.786;2023-04-01T16:33:45;7.60;;;6.38;;
12493;SDS011;8260;51.422;6.786;2023-04-01T16:36:20;7.13;;;6.43;;
12493;SDS011;8260;51.422;6.786;2023-04-01T16:38:52;8.43;;;7.30;;
12493;SDS011;8260;51.422;6.786;2023-04-01T16:41:23;8.32;;;7.53;;
12493;SDS011;8260;51.422;6.786;2023-04-01T16:43:55;8.95;;;7.80;;
12493;SDS011;8260;51.422;6.786;2023-04-01T16:46:28;10.23;;;8.40;;
12493;SDS011;8260;51.422;6.786;2023-04-01T16:49:00;10.57;;;9.20;;
12493;SDS011;8260;51.422;6.786;2023-04-01T16:51:37;10.30;;;9.20;;
12493;SDS011;8260;51.422;6.786;2023-04-01T16:54:12;10.63;;;8.93;;
12493;SDS011;8260;51.422;6.786;2023-04-01T16:56:43;12.73;;;9.73;;
12493;SDS011;8260;51.422;6.786;2023-04-01T16:59:16;11.30;;;9.07;;
12493;SDS011;8260;51.422;6.786;2023-04-01T17:01:48;10.57;;;9.40;;
12493;SDS011;8260;51.422;6.786;2023-04-01T17:04:19;12.65;;;9.88;;
12493;SDS011;8260;51.422;6.786;2023-04-01T17:06:52;11.05;;;9.90;;
12493;SDS011;8260;51.422;6.786;2023-04-01T17:09:27;13.98;;;10.80;;